sensor_id;sensor_type;location;lat;lon;timestamp;P1;durP1;ratioP1;P2;durP2;ratioP2
840;SDS011;406;48.566;13.450;2023-07-13T00:01:31;10.80;;;7.00;;
840;SDS011;406;48.566;13.450;2023-07-13T00:03:58;8.60;;;6.93;;
840;SDS011;406;48.566;13.450;2023-07-13T00:06:26;8.73;;;7.27;;
840;SDS011;406;48.566;13.450;2023-07-13T00:08:59;8.73;;;7.60;;
840;SDS011;406;48.566;13.450;2023-07-13T00:11:26;10.33;;;8.40;;
840;SDS011;406;48.566;13.450;2023-07-13T00:13:52;11.00;;;8.60;;
840;SDS011;406;48.566;13.450;2023-07-13T00:16:19;11.93;;;10.73;;
840;SDS011;406;48.566;13.450;2023-07-13T00:18:46;10.93;;;9.83;;
840;SDS011;406;48.566;13.450;2023-07-13T00:21:13;13.20;;;9.87;;
840;SDS011;406;48.566;13.450;2023-07-13T00:23:41;11.70;;;9.93;;
840;SDS011;406;48.566;13.450;2023-07-13T00:26:09;11.50;;;10.33;;
840;SDS011;406;48.566;13.450;2023-07-13T00:28:37;10.27;;;9.27;;
840;SDS011;406;48.566;13.450;2023-07-13T00:31:05;11.60;;;10.07;;
840;SDS011;406;48.566;13.450;2023-07-13T00:33:34;11.80;;;10.10;;
840;SDS011;406;48.566;13.450;2023-07-13T00:36:01;13.37;;;12.07;;
840;SDS011;406;48.566;13.450;2023-07-13T00:38:28;12.83;;;10.40;;
840;SDS011;406;48.566;13.450;2023-07-13T00:40:55;11.73;;;10.63;;
840;SDS011;406;48.566;13.450;2023-07-13T00:43:23;12.20;;;11.00;;
840;SDS011;406;48.566;13.450;2023-07-13T00:48:21;13.50;;;11.97;;
840;SDS011;406;48.566;13.450;2023-07-13T00:50:52;12.50;;;10.50;;
840;SDS011;406;48.566;13.450;2023-07-13T00:53:20;12.40;;;9.63;;
840;SDS011;406;48.566;13.450;2023-07-13T00:55:47;11.63;;;10.37;;
840;SDS011;406;48.566;13.450;2023-07-13T00:58:15;10.90;;;9.70;;
840;SDS011;406;48.566;13.450;2023-07-13T01:00:42;11.93;;;10.30;;
840;SDS011;406;48.566;13.450;2023-07-13T01:03:09;11.23;;;9.27;;
840;SDS011;406;48.566;13.450;2023-07-13T01:05:36;10.03;;;8.93;;
840;SDS011;406;48.566;13.450;2023-07-13T01:08:03;12.93;;;9.03;;
840;SDS011;406;48.566;13.450;2023-07-13T01:10:32;10.03;;;9.03;;
840;SDS011;406;48.566;13.450;2023-07-13T01:13:08;12.10;;;8.80;;
840;SDS011;406;48.566;13.450;2023-07-13T01:18:07;11.47;;;9.40;;
840;SDS011;406;48.566;13.450;2023-07-13T01:20:41;10.17;;;8.40;;
840;SDS011;406;48.566;13.450;2023-07-13T01:23:13;13.30;;;10.37;;
840;SDS011;406;48.566;13.450;2023-07-13T01:25:39;10.57;;;9.23;;
840;SDS011;406;48.566;13.450;2023-07-13T01:28:06;13.27;;;10.00;;
840;SDS011;406;48.566;13.450;2023-07-13T01:30:36;14.80;;;9.47;;
840;SDS011;406;48.566;13.450;2023-07-13T01:33:07;10.87;;;9.77;;
840;SDS011;406;48.566;13.450;2023-07-13T01:35:34;12.23;;;9.10;;
840;SDS011;406;48.566;13.450;2023-07-13T01:38:00;10.90;;;9.80;;
840;SDS011;406;48.566;13.450;2023-07-13T01:40:28;13.10;;;9.80;;
840;SDS011;406;48.566;13.450;2023-07-13T01:42:56;9.83;;;8.83;;
840;SDS011;406;48.566;13.450;2023-07-13T01:45:24;10.00;;;8.53;;
840;SDS011;406;48.566;13.450;2023-07-13T01:47:50;11.00;;;9.90;;
840;SDS011;406;48.566;13.450;2023-07-13T01:50:17;13.60;;;10.00;;
840;SDS011;406;48.566;13.450;2023-07-13T01:52:43;10.00;;;9.00;;
840;SDS011;406;48.566;13.450;2023-07-13T01:55:10;13.07;;;10.17;;
840;SDS011;406;48.566;13.450;2023-07-13T01:57:37;9.17;;;8.30;;
840;SDS011;406;48.566;13.450;2023-07-13T02:00:04;11.33;;;9.27;;
840;SDS011;406;48.566;13.450;2023-07-13T02:02:40;14.57;;;8.53;;
840;SDS011;406;48.566;13.450;2023-07-13T02:05:11;10.70;;;9.60;;
840;SDS011;406;48.566;13.450;2023-07-13T02:07:40;9.50;;;8.47;;
840;SDS011;406;48.566;13.450;2023-07-13T02:10:07;11.33;;;9.23;;
840;SDS011;406;48.566;13.450;2023-07-13T02:12:35;14.10;;;8.90;;
840;SDS011;406;48.566;13.450;2023-07-13T02:15:02;10.73;;;9.33;;
840;SDS011;406;48.566;13.450;2023-07-13T02:17:29;14.67;;;9.83;;
840;SDS011;406;48.566;13.450;2023-07-13T02:19:56;11.07;;;9.63;;
840;SDS011;406;48.566;13.450;2023-07-13T02:22:22;11.63;;;8.97;;
840;SDS011;406;48.566;13.450;2023-07-13T02:24:49;10.93;;;9.20;;
840;SDS011;406;48.566;13.450;2023-07-13T02:27:17;9.60;;;8.13;;
840;SDS011;406;48.566;13.450;2023-07-13T02:29:44;9.53;;;7.80;;
840;SDS011;406;48.566;13.450;2023-07-13T02:32:10;9.50;;;7.33;;
840;SDS011;406;48.566;13.450;2023-07-13T02:34:37;9.43;;;8.00;;
840;SDS011;406;48.566;13.450;2023-07-13T02:37:03;8.10;;;7.30;;
840;SDS011;406;48.566;13.450;2023-07-13T02:39:30;7.10;;;6.40;;
840;SDS011;406;48.566;13.450;2023-07-13T02:41:59;9.43;;;6.77;;
840;SDS011;406;48.566;13.450;2023-07-13T02:44:26;7.13;;;6.43;;
840;SDS011;406;48.566;13.450;2023-07-13T02:46:53;9.27;;;6.80;;
840;SDS011;406;48.566;13.450;2023-07-13T02:49:19;8.93;;;6.23;;
840;SDS011;406;48.566;13.450;2023-07-13T02:51:46;11.80;;;6.90;;
840;SDS011;406;48.566;13.450;2023-07-13T02:54:13;8.40;;;7.40;;
840;SDS011;406;48.566;13.450;2023-07-13T02:56:40;13.27;;;7.03;;
840;SDS011;406;48.566;13.450;2023-07-13T02:59:06;10.47;;;7.63;;
840;SDS011;406;48.566;13.450;2023-07-13T03:01:33;7.10;;;6.40;;
840;SDS011;406;48.566;13.450;2023-07-13T03:04:01;10.03;;;6.30;;
840;SDS011;406;48.566;13.450;2023-07-13T03:06:31;7.40;;;6.33;;
840;SDS011;406;48.566;13.450;2023-07-13T03:08:59;8.53;;;6.80;;
840;SDS011;406;48.566;13.450;2023-07-13T03:11:29;9.20;;;6.60;;
840;SDS011;406;48.566;13.450;2023-07-13T03:14:04;8.50;;;6.37;;
840;SDS011;406;48.566;13.450;2023-07-13T03:16:34;6.83;;;5.90;;
840;SDS011;406;48.566;13.450;2023-07-13T03:19:01;7.33;;;6.20;;
840;SDS011;406;48.566;13.450;2023-07-13T03:21:28;9.57;;;6.10;;
840;SDS011;406;48.566;13.450;2023-07-13T03:23:55;7.20;;;6.50;;
840;SDS011;406;48.566;13.450;2023-07-13T03:26:21;8.23;;;7.10;;
840;SDS011;406;48.566;13.450;2023-07-13T03:28:48;7.40;;;6.33;;
840;SDS011;406;48.566;13.450;2023-07-13T03:31:20;6.77;;;6.07;;
840;SDS011;406;48.566;13.450;2023-07-13T03:33:50;7.13;;;6.43;;
840;SDS011;406;48.566;13.450;2023-07-13T03:36:18;7.93;;;6.20;;
840;SDS011;406;48.566;13.450;2023-07-13T03:38:54;7.40;;;6.70;;
840;SDS011;406;48.566;13.450;2023-07-13T03:41:32;10.03;;;6.23;;
840;SDS011;406;48.566;13.450;2023-07-13T03:43:59;8.20;;;6.40;;
840;SDS011;406;48.566;13.450;2023-07-13T03:46:26;7.00;;;6.10;;
840;SDS011;406;48.566;13.450;2023-07-13T03:48:53;7.53;;;5.90;;
840;SDS011;406;48.566;13.450;2023-07-13T03:51:21;8.53;;;5.87;;
840;SDS011;406;48.566;13.450;2023-07-13T03:53:47;6.73;;;6.00;;
840;SDS011;406;48.566;13.450;2023-07-13T03:56:17;9.33;;;6.43;;
840;SDS011;406;48.566;13.450;2023-07-13T03:58:45;11.37;;;6.80;;
840;SDS011;406;48.566;13.450;2023-07-13T04:01:17;11.47;;;6.30;;
840;SDS011;406;48.566;13.450;2023-07-13T04:03:45;7.00;;;6.30;;
840;SDS011;406;48.566;13.450;2023-07-13T04:06:15;7.43;;;6.57;;
840;SDS011;406;48.566;13.450;2023-07-13T04:08:51;6.77;;;6.10;;
840;SDS011;406;48.566;13.450;2023-07-13T04:11:19;7.40;;;4.63;;
840;SDS011;406;48.566;13.450;2023-07-13T04:13:47;9.53;;;5.20;;
840;SDS011;406;48.566;13.450;2023-07-13T04:16:14;5.73;;;5.00;;
840;SDS011;406;48.566;13.450;2023-07-13T04:18:41;6.30;;;5.50;;
840;SDS011;406;48.566;13.450;2023-07-13T04:21:08;6.50;;;5.10;;
840;SDS011;406;48.566;13.450;2023-07-13T04:23:36;10.60;;;5.50;;
840;SDS011;406;48.566;13.450;2023-07-13T04:26:03;7.27;;;5.17;;
840;SDS011;406;48.566;13.450;2023-07-13T04:28:30;6.80;;;5.00;;
840;SDS011;406;48.566;13.450;2023-07-13T04:30:56;5.50;;;4.93;;
840;SDS011;406;48.566;13.450;2023-07-13T04:33:23;7.93;;;5.80;;
840;SDS011;406;48.566;13.450;2023-07-13T04:35:50;8.20;;;4.63;;
840;SDS011;406;48.566;13.450;2023-07-13T04:38:24;6.30;;;4.90;;
840;SDS011;406;48.566;13.450;2023-07-13T04:40:58;5.93;;;4.77;;
840;SDS011;406;48.566;13.450;2023-07-13T04:43:27;5.73;;;4.70;;
840;SDS011;406;48.566;13.450;2023-07-13T04:45:54;9.40;;;6.13;;
840;SDS011;406;48.566;13.450;2023-07-13T04:48:21;6.83;;;4.80;;
840;SDS011;406;48.566;13.450;2023-07-13T04:50:47;8.03;;;5.00;;
840;SDS011;406;48.566;13.450;2023-07-13T04:53:14;10.40;;;5.73;;
840;SDS011;406;48.566;13.450;2023-07-13T04:55:40;7.10;;;5.17;;
840;SDS011;406;48.566;13.450;2023-07-13T04:58:07;5.03;;;3.73;;
840;SDS011;406;48.566;13.450;2023-07-13T05:00:33;4.80;;;3.83;;
840;SDS011;406;48.566;13.450;2023-07-13T05:03:00;6.93;;;4.63;;
840;SDS011;406;48.566;13.450;2023-07-13T05:05:27;4.73;;;3.80;;
840;SDS011;406;48.566;13.450;2023-07-13T05:07:53;7.10;;;4.37;;
840;SDS011;406;48.566;13.450;2023-07-13T05:10:20;4.97;;;3.80;;
840;SDS011;406;48.566;13.450;2023-07-13T05:12:47;7.80;;;3.77;;
840;SDS011;406;48.566;13.450;2023-07-13T05:15:13;8.80;;;4.23;;
840;SDS011;406;48.566;13.450;2023-07-13T05:17:40;7.73;;;3.60;;
840;SDS011;406;48.566;13.450;2023-07-13T05:20:08;4.40;;;3.30;;
840;SDS011;406;48.566;13.450;2023-07-13T05:22:35;5.20;;;3.90;;
840;SDS011;406;48.566;13.450;2023-07-13T05:25:06;5.17;;;3.40;;
840;SDS011;406;48.566;13.450;2023-07-13T05:27:33;5.73;;;3.30;;
840;SDS011;406;48.566;13.450;2023-07-13T05:30:01;6.60;;;4.20;;
840;SDS011;406;48.566;13.450;2023-07-13T05:32:29;6.10;;;3.50;;
840;SDS011;406;48.566;13.450;2023-07-13T05:34:55;5.50;;;3.10;;
840;SDS011;406;48.566;13.450;2023-07-13T05:37:22;5.87;;;3.33;;
840;SDS011;406;48.566;13.450;2023-07-13T05:39:48;7.03;;;3.13;;
840;SDS011;406;48.566;13.450;2023-07-13T05:42:15;5.27;;;3.37;;
840;SDS011;406;48.566;13.450;2023-07-13T05:44:41;3.10;;;2.80;;
840;SDS011;406;48.566;13.450;2023-07-13T05:47:08;5.53;;;3.33;;
840;SDS011;406;48.566;13.450;2023-07-13T05:49:35;5.20;;;3.30;;
840;SDS011;406;48.566;13.450;2023-07-13T05:52:01;4.97;;;2.93;;
840;SDS011;406;48.566;13.450;2023-07-13T05:54:28;4.60;;;3.07;;
840;SDS011;406;48.566;13.450;2023-07-13T05:56:54;4.27;;;3.40;;
840;SDS011;406;48.566;13.450;2023-07-13T05:59:21;6.37;;;4.30;;
840;SDS011;406;48.566;13.450;2023-07-13T06:01:48;5.00;;;3.50;;
840;SDS011;406;48.566;13.450;2023-07-13T06:04:15;4.50;;;3.70;;
840;SDS011;406;48.566;13.450;2023-07-13T06:06:42;3.50;;;3.20;;
840;SDS011;406;48.566;13.450;2023-07-13T06:09:08;4.53;;;3.73;;
840;SDS011;406;48.566;13.450;2023-07-13T06:11:35;5.20;;;3.37;;
840;SDS011;406;48.566;13.450;2023-07-13T06:14:01;3.83;;;3.43;;
840;SDS011;406;48.566;13.450;2023-07-13T06:16:28;6.27;;;4.00;;
840;SDS011;406;48.566;13.450;2023-07-13T06:18:55;6.93;;;3.60;;
840;SDS011;406;48.566;13.450;2023-07-13T06:21:21;3.30;;;3.00;;
840;SDS011;406;48.566;13.450;2023-07-13T06:23:49;6.70;;;4.10;;
840;SDS011;406;48.566;13.450;2023-07-13T06:26:17;5.00;;;3.80;;
840;SDS011;406;48.566;13.450;2023-07-13T06:28:45;12.80;;;4.43;;
840;SDS011;406;48.566;13.450;2023-07-13T06:31:12;5.50;;;3.60;;
840;SDS011;406;48.566;13.450;2023-07-13T06:33:40;6.10;;;4.60;;
840;SDS011;406;48.566;13.450;2023-07-13T06:36:07;6.20;;;4.40;;
840;SDS011;406;48.566;13.450;2023-07-13T06:38:34;7.40;;;3.87;;
840;SDS011;406;48.566;13.450;2023-07-13T06:41:01;7.30;;;3.90;;
840;SDS011;406;48.566;13.450;2023-07-13T06:43:27;11.20;;;4.73;;
840;SDS011;406;48.566;13.450;2023-07-13T06:45:55;7.43;;;5.10;;
840;SDS011;406;48.566;13.450;2023-07-13T06:48:22;6.20;;;4.70;;
840;SDS011;406;48.566;13.450;2023-07-13T06:50:50;4.20;;;3.80;;
840;SDS011;406;48.566;13.450;2023-07-13T06:53:17;5.93;;;4.70;;
840;SDS011;406;48.566;13.450;2023-07-13T06:55:45;9.80;;;5.27;;
840;SDS011;406;48.566;13.450;2023-07-13T06:58:12;5.10;;;4.60;;
840;SDS011;406;48.566;13.450;2023-07-13T07:00:39;5.90;;;4.60;;
840;SDS011;406;48.566;13.450;2023-07-13T07:03:06;4.77;;;4.30;;
840;SDS011;406;48.566;13.450;2023-07-13T07:05:33;6.63;;;4.87;;
840;SDS011;406;48.566;13.450;2023-07-13T07:08:00;5.20;;;4.63;;
840;SDS011;406;48.566;13.450;2023-07-13T07:10:28;7.50;;;5.03;;
840;SDS011;406;48.566;13.450;2023-07-13T07:12:55;8.10;;;5.80;;
840;SDS011;406;48.566;13.450;2023-07-13T07:15:22;5.87;;;4.40;;
840;SDS011;406;48.566;13.450;2023-07-13T07:17:48;9.53;;;5.70;;
840;SDS011;406;48.566;13.450;2023-07-13T07:20:15;16.80;;;6.33;;
840;SDS011;406;48.566;13.450;2023-07-13T07:22:42;7.53;;;4.70;;
840;SDS011;406;48.566;13.450;2023-07-13T07:25:08;10.73;;;5.20;;
840;SDS011;406;48.566;13.450;2023-07-13T07:27:35;8.30;;;5.23;;
840;SDS011;406;48.566;13.450;2023-07-13T07:30:05;8.60;;;5.57;;
840;SDS011;406;48.566;13.450;2023-07-13T07:32:35;7.97;;;5.33;;
840;SDS011;406;48.566;13.450;2023-07-13T07:35:04;6.50;;;5.00;;
840;SDS011;406;48.566;13.450;2023-07-13T07:37:31;5.83;;;4.80;;
840;SDS011;406;48.566;13.450;2023-07-13T07:40:00;5.10;;;3.80;;
840;SDS011;406;48.566;13.450;2023-07-13T07:42:30;7.33;;;4.50;;
840;SDS011;406;48.566;13.450;2023-07-13T07:44:56;6.37;;;4.47;;
840;SDS011;406;48.566;13.450;2023-07-13T07:47:23;7.27;;;4.90;;
840;SDS011;406;48.566;13.450;2023-07-13T07:49:50;7.47;;;4.80;;
840;SDS011;406;48.566;13.450;2023-07-13T07:52:16;12.37;;;4.83;;
840;SDS011;406;48.566;13.450;2023-07-13T07:54:43;4.73;;;4.33;;
840;SDS011;406;48.566;13.450;2023-07-13T07:57:13;4.80;;;4.10;;
840;SDS011;406;48.566;13.450;2023-07-13T07:59:42;4.93;;;4.53;;
840;SDS011;406;48.566;13.450;2023-07-13T08:02:11;5.67;;;4.03;;
840;SDS011;406;48.566;13.450;2023-07-13T08:04:58;6.37;;;4.50;;
840;SDS011;406;48.566;13.450;2023-07-13T08:07:27;5.87;;;4.57;;
840;SDS011;406;48.566;13.450;2023-07-13T08:09:55;4.87;;;4.30;;
840;SDS011;406;48.566;13.450;2023-07-13T08:12:21;7.23;;;3.90;;
840;SDS011;406;48.566;13.450;2023-07-13T08:14:50;8.40;;;4.27;;
840;SDS011;406;48.566;13.450;2023-07-13T08:17:20;5.67;;;3.63;;
840;SDS011;406;48.566;13.450;2023-07-13T08:19:47;6.77;;;4.80;;
840;SDS011;406;48.566;13.450;2023-07-13T08:22:13;5.13;;;4.17;;
840;SDS011;406;48.566;13.450;2023-07-13T08:24:40;4.63;;;3.70;;
840;SDS011;406;48.566;13.450;2023-07-13T08:27:08;45.70;;;5.00;;
840;SDS011;406;48.566;13.450;2023-07-13T08:29:38;7.87;;;3.90;;
840;SDS011;406;48.566;13.450;2023-07-13T08:32:05;3.93;;;3.60;;
840;SDS011;406;48.566;13.450;2023-07-13T08:34:33;5.00;;;3.70;;
840;SDS011;406;48.566;13.450;2023-07-13T08:36:59;8.37;;;4.00;;
840;SDS011;406;48.566;13.450;2023-07-13T08:39:26;4.40;;;3.67;;
840;SDS011;406;48.566;13.450;2023-07-13T08:41:55;5.57;;;3.60;;
840;SDS011;406;48.566;13.450;2023-07-13T08:47:32;6.83;;;3.47;;
840;SDS011;406;48.566;13.450;2023-07-13T08:50:02;7.13;;;3.13;;
840;SDS011;406;48.566;13.450;2023-07-13T08:55:03;4.57;;;3.50;;
840;SDS011;406;48.566;13.450;2023-07-13T08:57:36;6.70;;;3.73;;
840;SDS011;406;48.566;13.450;2023-07-13T09:00:03;3.60;;;3.13;;
840;SDS011;406;48.566;13.450;2023-07-13T09:10:53;3.27;;;2.97;;
840;SDS011;406;48.566;13.450;2023-07-13T09:13:32;3.47;;;3.17;;
840;SDS011;406;48.566;13.450;2023-07-13T09:16:03;6.63;;;3.60;;
840;SDS011;406;48.566;13.450;2023-07-13T09:18:37;6.60;;;3.53;;
840;SDS011;406;48.566;13.450;2023-07-13T09:21:10;5.83;;;3.67;;
840;SDS011;406;48.566;13.450;2023-07-13T09:23:40;9.30;;;3.20;;
840;SDS011;406;48.566;13.450;2023-07-13T09:26:10;3.93;;;3.50;;
840;SDS011;406;48.566;13.450;2023-07-13T09:28:43;5.30;;;3.00;;
840;SDS011;406;48.566;13.450;2023-07-13T09:31:28;4.37;;;3.37;;
840;SDS011;406;48.566;13.450;2023-07-13T09:34:01;3.90;;;2.30;;
840;SDS011;406;48.566;13.450;2023-07-13T09:36:29;4.73;;;3.20;;
840;SDS011;406;48.566;13.450;2023-07-13T09:44:28;4.73;;;2.87;;
840;SDS011;406;48.566;13.450;2023-07-13T09:46:57;6.00;;;3.33;;
840;SDS011;406;48.566;13.450;2023-07-13T09:49:24;5.37;;;3.47;;
840;SDS011;406;48.566;13.450;2023-07-13T09:52:00;4.70;;;2.60;;
840;SDS011;406;48.566;13.450;2023-07-13T09:54:35;6.43;;;3.50;;
840;SDS011;406;48.566;13.450;2023-07-13T09:57:03;3.23;;;2.73;;
840;SDS011;406;48.566;13.450;2023-07-13T09:59:42;3.60;;;2.40;;
840;SDS011;406;48.566;13.450;2023-07-13T10:05:06;3.27;;;2.30;;
840;SDS011;406;48.566;13.450;2023-07-13T10:07:41;3.90;;;2.73;;
840;SDS011;406;48.566;13.450;2023-07-13T10:10:14;4.20;;;3.40;;
840;SDS011;406;48.566;13.450;2023-07-13T10:12:42;3.80;;;1.90;;
840;SDS011;406;48.566;13.450;2023-07-13T10:15:15;4.00;;;2.53;;
840;SDS011;406;48.566;13.450;2023-07-13T10:17:50;2.93;;;2.10;;
840;SDS011;406;48.566;13.450;2023-07-13T10:20:17;3.23;;;1.90;;
840;SDS011;406;48.566;13.450;2023-07-13T10:23:02;2.87;;;2.57;;
840;SDS011;406;48.566;13.450;2023-07-13T10:25:33;3.30;;;2.50;;
840;SDS011;406;48.566;13.450;2023-07-13T10:28:09;5.13;;;2.70;;
840;SDS011;406;48.566;13.450;2023-07-13T10:30:40;3.90;;;3.43;;
840;SDS011;406;48.566;13.450;2023-07-13T10:33:10;3.70;;;2.30;;
840;SDS011;406;48.566;13.450;2023-07-13T10:35:37;3.70;;;2.87;;
840;SDS011;406;48.566;13.450;2023-07-13T10:38:07;7.13;;;2.20;;
840;SDS011;406;48.566;13.450;2023-07-13T10:40:45;5.03;;;2.57;;
840;SDS011;406;48.566;13.450;2023-07-13T10:43:20;3.07;;;2.30;;
840;SDS011;406;48.566;13.450;2023-07-13T10:45:53;2.80;;;2.50;;
840;SDS011;406;48.566;13.450;2023-07-13T10:48:20;3.60;;;2.37;;
840;SDS011;406;48.566;13.450;2023-07-13T10:50:49;6.00;;;2.90;;
840;SDS011;406;48.566;13.450;2023-07-13T10:53:27;4.20;;;2.50;;
840;SDS011;406;48.566;13.450;2023-07-13T10:55:57;3.37;;;2.67;;
840;SDS011;406;48.566;13.450;2023-07-13T10:58:33;5.03;;;2.23;;
840;SDS011;406;48.566;13.450;2023-07-13T11:03:34;5.23;;;2.70;;
840;SDS011;406;48.566;13.450;2023-07-13T11:08:36;3.97;;;1.60;;
840;SDS011;406;48.566;13.450;2023-07-13T11:11:31;3.80;;;2.60;;
840;SDS011;406;48.566;13.450;2023-07-13T11:14:03;2.13;;;1.90;;
840;SDS011;406;48.566;13.450;2023-07-13T11:16:42;2.10;;;1.70;;
840;SDS011;406;48.566;13.450;2023-07-13T11:22:10;2.13;;;1.83;;
840;SDS011;406;48.566;13.450;2023-07-13T11:30:18;2.10;;;1.80;;
840;SDS011;406;48.566;13.450;2023-07-13T11:33:01;2.80;;;2.10;;
840;SDS011;406;48.566;13.450;2023-07-13T11:35:37;2.10;;;1.47;;
840;SDS011;406;48.566;13.450;2023-07-13T11:38:16;2.47;;;1.77;;
840;SDS011;406;48.566;13.450;2023-07-13T11:40:45;3.57;;;1.53;;
840;SDS011;406;48.566;13.450;2023-07-13T11:43:22;2.17;;;1.80;;
840;SDS011;406;48.566;13.450;2023-07-13T11:45:51;2.23;;;1.73;;
840;SDS011;406;48.566;13.450;2023-07-13T11:48:26;2.47;;;1.70;;
840;SDS011;406;48.566;13.450;2023-07-13T11:50:58;2.53;;;1.70;;
840;SDS011;406;48.566;13.450;2023-07-13T11:53:27;2.03;;;1.83;;
840;SDS011;406;48.566;13.450;2023-07-13T11:55:55;2.37;;;1.27;;
840;SDS011;406;48.566;13.450;2023-07-13T11:58:23;2.20;;;1.80;;
840;SDS011;406;48.566;13.450;2023-07-13T12:00:51;3.67;;;1.97;;
840;SDS011;406;48.566;13.450;2023-07-13T12:03:21;2.97;;;1.57;;
840;SDS011;406;48.566;13.450;2023-07-13T12:05:57;2.50;;;1.73;;
840;SDS011;406;48.566;13.450;2023-07-13T12:08:28;2.70;;;2.00;;
840;SDS011;406;48.566;13.450;2023-07-13T12:10:56;3.60;;;2.10;;
840;SDS011;406;48.566;13.450;2023-07-13T12:13:23;2.33;;;2.00;;
840;SDS011;406;48.566;13.450;2023-07-13T12:15:50;1.97;;;1.80;;
840;SDS011;406;48.566;13.450;2023-07-13T12:18:21;4.13;;;1.87;;
840;SDS011;406;48.566;13.450;2023-07-13T12:20:50;2.83;;;1.93;;
840;SDS011;406;48.566;13.450;2023-07-13T12:23:21;3.13;;;2.63;;
840;SDS011;406;48.566;13.450;2023-07-13T12:25:51;2.97;;;2.30;;
840;SDS011;406;48.566;13.450;2023-07-13T12:28:21;4.70;;;1.60;;
840;SDS011;406;48.566;13.450;2023-07-13T12:30:59;7.47;;;3.30;;
840;SDS011;406;48.566;13.450;2023-07-13T12:33:28;3.40;;;1.47;;
840;SDS011;406;48.566;13.450;2023-07-13T12:35:56;5.73;;;1.87;;
840;SDS011;406;48.566;13.450;2023-07-13T12:38:26;4.37;;;1.90;;
840;SDS011;406;48.566;13.450;2023-07-13T12:40:52;4.07;;;2.03;;
840;SDS011;406;48.566;13.450;2023-07-13T12:43:20;3.00;;;1.67;;
840;SDS011;406;48.566;13.450;2023-07-13T12:48:43;4.10;;;1.83;;
840;SDS011;406;48.566;13.450;2023-07-13T12:51:25;2.97;;;1.80;;
840;SDS011;406;48.566;13.450;2023-07-13T12:54:15;2.80;;;1.80;;
840;SDS011;406;48.566;13.450;2023-07-13T12:56:43;3.50;;;1.73;;
840;SDS011;406;48.566;13.450;2023-07-13T12:59:15;3.67;;;2.40;;
840;SDS011;406;48.566;13.450;2023-07-13T13:01:43;3.40;;;2.20;;
840;SDS011;406;48.566;13.450;2023-07-13T13:04:10;2.23;;;1.30;;
840;SDS011;406;48.566;13.450;2023-07-13T13:06:39;3.70;;;2.17;;
840;SDS011;406;48.566;13.450;2023-07-13T13:09:11;5.60;;;2.00;;
840;SDS011;406;48.566;13.450;2023-07-13T13:11:39;4.80;;;1.70;;
840;SDS011;406;48.566;13.450;2023-07-13T13:14:06;1.97;;;1.77;;
840;SDS011;406;48.566;13.450;2023-07-13T13:16:40;4.93;;;1.60;;
840;SDS011;406;48.566;13.450;2023-07-13T13:19:16;3.97;;;2.00;;
840;SDS011;406;48.566;13.450;2023-07-13T13:21:50;2.70;;;1.80;;
840;SDS011;406;48.566;13.450;2023-07-13T13:24:20;6.30;;;1.60;;
840;SDS011;406;48.566;13.450;2023-07-13T13:26:49;2.47;;;1.60;;
840;SDS011;406;48.566;13.450;2023-07-13T13:29:32;2.10;;;1.73;;
840;SDS011;406;48.566;13.450;2023-07-13T13:31:59;4.10;;;1.53;;
840;SDS011;406;48.566;13.450;2023-07-13T13:34:26;4.93;;;2.20;;
840;SDS011;406;48.566;13.450;2023-07-13T13:36:57;1.60;;;1.50;;
840;SDS011;406;48.566;13.450;2023-07-13T13:39:33;3.20;;;2.03;;
840;SDS011;406;48.566;13.450;2023-07-13T13:42:01;2.83;;;1.90;;
840;SDS011;406;48.566;13.450;2023-07-13T13:44:27;2.80;;;2.10;;
840;SDS011;406;48.566;13.450;2023-07-13T13:46:54;3.90;;;1.67;;
840;SDS011;406;48.566;13.450;2023-07-13T13:49:25;4.37;;;2.03;;
840;SDS011;406;48.566;13.450;2023-07-13T13:58:01;4.30;;;2.33;;
840;SDS011;406;48.566;13.450;2023-07-13T14:03:32;3.23;;;1.90;;
840;SDS011;406;48.566;13.450;2023-07-13T14:05:58;3.60;;;2.33;;
840;SDS011;406;48.566;13.450;2023-07-13T14:08:25;1.70;;;1.40;;
840;SDS011;406;48.566;13.450;2023-07-13T14:10:52;2.13;;;1.93;;
840;SDS011;406;48.566;13.450;2023-07-13T14:13:21;3.23;;;1.60;;
840;SDS011;406;48.566;13.450;2023-07-13T14:15:53;2.20;;;1.97;;
840;SDS011;406;48.566;13.450;2023-07-13T14:18:20;2.20;;;1.67;;
840;SDS011;406;48.566;13.450;2023-07-13T14:20:47;5.87;;;2.30;;
840;SDS011;406;48.566;13.450;2023-07-13T14:23:15;2.90;;;1.60;;
840;SDS011;406;48.566;13.450;2023-07-13T14:25:42;3.70;;;2.23;;
840;SDS011;406;48.566;13.450;2023-07-13T14:28:31;3.23;;;1.90;;
840;SDS011;406;48.566;13.450;2023-07-13T14:30:56;2.40;;;1.50;;
840;SDS011;406;48.566;13.450;2023-07-13T14:33:22;2.40;;;2.20;;
840;SDS011;406;48.566;13.450;2023-07-13T14:35:49;2.83;;;2.23;;
840;SDS011;406;48.566;13.450;2023-07-13T14:38:18;4.20;;;1.97;;
840;SDS011;406;48.566;13.450;2023-07-13T14:40:46;2.80;;;1.80;;
840;SDS011;406;48.566;13.450;2023-07-13T14:43:13;4.50;;;2.27;;
840;SDS011;406;48.566;13.450;2023-07-13T14:45:41;1.77;;;1.67;;
840;SDS011;406;48.566;13.450;2023-07-13T14:48:31;4.17;;;1.87;;
840;SDS011;406;48.566;13.450;2023-07-13T14:50:56;1.87;;;1.57;;
840;SDS011;406;48.566;13.450;2023-07-13T14:53:25;7.53;;;2.50;;
840;SDS011;406;48.566;13.450;2023-07-13T14:55:54;3.70;;;2.30;;
840;SDS011;406;48.566;13.450;2023-07-13T14:58:20;2.13;;;1.70;;
840;SDS011;406;48.566;13.450;2023-07-13T15:00:47;2.90;;;1.70;;
840;SDS011;406;48.566;13.450;2023-07-13T15:03:21;3.40;;;1.83;;
840;SDS011;406;48.566;13.450;2023-07-13T15:05:49;1.93;;;1.50;;
840;SDS011;406;48.566;13.450;2023-07-13T15:08:15;4.30;;;2.00;;
840;SDS011;406;48.566;13.450;2023-07-13T15:10:42;3.93;;;2.03;;
840;SDS011;406;48.566;13.450;2023-07-13T15:13:14;3.33;;;2.03;;
840;SDS011;406;48.566;13.450;2023-07-13T15:15:41;2.20;;;1.57;;
840;SDS011;406;48.566;13.450;2023-07-13T15:18:10;1.90;;;1.60;;
840;SDS011;406;48.566;13.450;2023-07-13T15:20:38;5.60;;;1.70;;
840;SDS011;406;48.566;13.450;2023-07-13T15:23:05;2.07;;;1.90;;
840;SDS011;406;48.566;13.450;2023-07-13T15:25:32;3.10;;;1.90;;
840;SDS011;406;48.566;13.450;2023-07-13T15:28:00;2.23;;;1.70;;
840;SDS011;406;48.566;13.450;2023-07-13T15:30:29;2.43;;;2.07;;
840;SDS011;406;48.566;13.450;2023-07-13T15:32:57;2.20;;;1.53;;
840;SDS011;406;48.566;13.450;2023-07-13T15:35:28;3.10;;;1.30;;
840;SDS011;406;48.566;13.450;2023-07-13T15:37:55;3.63;;;2.27;;
840;SDS011;406;48.566;13.450;2023-07-13T15:40:22;1.93;;;1.27;;
840;SDS011;406;48.566;13.450;2023-07-13T15:42:50;2.07;;;1.87;;
840;SDS011;406;48.566;13.450;2023-07-13T15:45:17;4.20;;;1.90;;
840;SDS011;406;48.566;13.450;2023-07-13T15:47:46;2.90;;;1.87;;
840;SDS011;406;48.566;13.450;2023-07-13T15:50:16;3.13;;;1.57;;
840;SDS011;406;48.566;13.450;2023-07-13T15:52:44;1.63;;;1.53;;
840;SDS011;406;48.566;13.450;2023-07-13T15:55:13;2.60;;;1.67;;
840;SDS011;406;48.566;13.450;2023-07-13T15:57:48;2.63;;;1.60;;
840;SDS011;406;48.566;13.450;2023-07-13T16:00:20;6.73;;;1.63;;
840;SDS011;406;48.566;13.450;2023-07-13T16:02:51;1.90;;;1.70;;
840;SDS011;406;48.566;13.450;2023-07-13T16:05:18;3.20;;;1.80;;
840;SDS011;406;48.566;13.450;2023-07-13T16:07:48;2.53;;;2.23;;
840;SDS011;406;48.566;13.450;2023-07-13T16:10:16;2.33;;;1.73;;
840;SDS011;406;48.566;13.450;2023-07-13T16:12:44;2.37;;;2.00;;
840;SDS011;406;48.566;13.450;2023-07-13T16:15:12;1.90;;;1.60;;
840;SDS011;406;48.566;13.450;2023-07-13T16:17:40;2.90;;;1.67;;
840;SDS011;406;48.566;13.450;2023-07-13T16:20:07;3.17;;;1.80;;
840;SDS011;406;48.566;13.450;2023-07-13T16:22:38;3.53;;;1.93;;
840;SDS011;406;48.566;13.450;2023-07-13T16:25:15;3.47;;;1.90;;
840;SDS011;406;48.566;13.450;2023-07-13T16:27:47;2.00;;;1.80;;
840;SDS011;406;48.566;13.450;2023-07-13T16:30:21;1.37;;;1.23;;
840;SDS011;406;48.566;13.450;2023-07-13T16:32:53;1.30;;;1.13;;